Currently 53°F in Hemet, California, USA
53°F
68°F / 53°F
1 mph N
0.01"
Sunday, May 3, 2026 11:20 PM PDT

Hemet, California Weather Summary
Last 36 Hours

Temperature Winds Hourly Humidity Dewpoint
Time Report Norm Report Norm Max Gusts Precip. Rpt. Norm Rpt. Norm Pressure
1Sun 11:20 PM  53.5°F  58°F  1 mph N  calm  3 mph  0.00"  73%  62%  45°F  45°F  29.97"
3Sun 11:19 PM  53.5°F  58°F  1 mph N  calm  3 mph  ----  73%  62%  45°F  45°F  29.97"
Sun 11:00 PM  53.9°F  58°F  calm  calm  2 mph  0.00"  73%  62%  45°F  45°F  29.96"
Sun 10:00 PM  54.5°F  60°F  calm  calm  3 mph  0.00"  70%  60%  45°F  45°F  29.98"
Sun 09:00 PM  55.6°F  62°F  calm  calm  6 mph  0.00"  68%  56%  45°F  46°F  29.97"
Sun 08:00 PM  56.2°F  65°F  1 mph SW  1 mph  9 mph  0.00"  66%  52%  45°F  46°F  29.94"
Sun 07:00 PM  59.9°F  69°F  4 mph N  2 mph  12 mph  0.00"  62%  45%  46°F  46°F  29.90"
Sun 06:00 PM  65.6°F  73°F  5 mph N  3 mph  12 mph  0.00"  54%  39%  48°F  46°F  29.88"
2Sun 05:23 PM  67.9°F  74°F  6 mph W  4 mph  8 mph  ----  54%  37%  50°F  46°F  29.87"
Sun 05:00 PM  65.3°F  75°F  2 mph W  4 mph  7 mph  0.00"  61%  36%  51°F  45°F  29.87"
Sun 04:00 PM  64.2°F  76°F  3 mph E  4 mph  7 mph  0.00"  64%  34%  51°F  45°F  29.89"
Sun 03:00 PM  59.8°F  77°F  3 mph W  3 mph  7 mph  0.00"  74%  32%  51°F  44°F  29.91"
Sun 02:00 PM  58.9°F  76°F  3 mph W  3 mph  9 mph  0.00"  78%  33%  52°F  44°F  29.91"
Sun 01:00 PM  58.6°F  74°F  2 mph W  2 mph  7 mph  0.00"  80%  36%  52°F  44°F  29.91"
Sun 12:00 PM  58.1°F  71°F  3 mph N  2 mph  9 mph  0.00"  84%  40%  53°F  45°F  29.93"
Sun 11:00 AM  57.6°F  68°F  4 mph N  1 mph  10 mph  0.00"  90%  45%  55°F  45°F  29.92"
Sun 10:00 AM  56.3°F  65°F  2 mph NW  1 mph  6 mph  0.00"  100%  51%  56°F  46°F  29.91"
Sun 09:00 AM  56.2°F  61°F  3 mph W  calm  5 mph  0.00"  100%  58%  56°F  46°F  29.92"
Sun 08:00 AM  56.0°F  58°F  2 mph W  calm  3 mph  0.00"  100%  64%  56°F  45°F  29.90"
Sun 07:00 AM  55.6°F  55°F  1 mph W  calm  5 mph  0.00"  96%  65%  54°F  43°F  29.90"
Sun 06:00 AM  55.9°F  54°F  calm  calm  3 mph  0.01"  95%  65%  54°F  42°F  29.87"
Sun 05:00 AM  56.0°F  54°F  2 mph NW  calm  3 mph  0.00"  94%  65%  54°F  42°F  29.87"
Sun 04:00 AM  56.3°F  55°F  1 mph NW  calm  5 mph  0.00"  92%  65%  54°F  43°F  29.87"
Sun 03:00 AM  57.0°F  55°F  1 mph NW  calm  3 mph  0.00"  89%  65%  54°F  43°F  29.87"
Sun 02:00 AM  58.0°F  56°F  1 mph NW  calm  5 mph  0.00"  84%  64%  53°F  44°F  29.89"
Sun 01:00 AM  61.2°F  57°F  calm  calm  2 mph  0.00"  73%  64%  52°F  44°F  29.90"
Sun 12:01 AM  62.6°F  57°F  calm  calm  1 mph  0.00"  66%  63%  51°F  44°F  29.90"
Sat 11:00 PM  64.5°F  58°F  calm  calm  3 mph  0.00"  66%  62%  52°F  45°F  29.90"
Sat 10:00 PM  68.8°F  60°F  1 mph N  calm  3 mph  0.00"  49%  59%  48°F  45°F  29.89"
Sat 09:00 PM  71.1°F  62°F  calm  calm  3 mph  0.00"  48%  56%  50°F  45°F  29.86"
Sat 08:00 PM  73.2°F  65°F  calm  1 mph  5 mph  0.00"  42%  52%  48°F  46°F  29.85"
Sat 07:00 PM  78.8°F  69°F  2 mph W  2 mph  8 mph  0.00"  33%  45%  46°F  46°F  29.84"
Sat 06:00 PM  81.4°F  73°F  6 mph W  3 mph  8 mph  0.00"  30%  39%  46°F  46°F  29.83"
Sat 05:01 PM  84.0°F  75°F  6 mph N  4 mph  10 mph  0.00"  27%  36%  45°F  45°F  29.82"
Sat 04:00 PM  84.9°F  76°F  6 mph W  4 mph  14 mph  0.00"  24%  33%  43°F  44°F  29.83"
Sat 03:00 PM  84.7°F  77°F  7 mph W  3 mph  13 mph  0.00"  22%  32%  40°F  43°F  29.85"
Sat 02:00 PM  82.8°F  76°F  5 mph W  3 mph  10 mph  0.00"  30%  33%  47°F  43°F  29.86"
Sat 01:00 PM  80.1°F  74°F  5 mph W  2 mph  8 mph  0.00"  35%  35%  49°F  44°F  29.88"
Sat 12:00 PM  76.0°F  71°F  2 mph NW  2 mph  9 mph  0.00"  33%  40%  44°F  45°F  29.91"

  1. Current weather data. No green row appears if the current weather data is also the high or low for the current day.
  2. High temperature for the current day.
  3. Low temperature for the current day.

The Hemet weather pages are a service of WeatherCurrents. Hemet, California is located in the San Jacinto Valley, in western Riverside County, at the foot of the San Jacinto mountains.
Copyright ©Sun May 03 23:22:21 PDT 2026  WeatherCurrents. All rights reserved. - Submit questions and comments - Privacy Policy

This page automatically refreshes every 10 minutes.